sensor_id;sensor_type;location;lat;lon;timestamp;P1;durP1;ratioP1;P2;durP2;ratioP2
40917;SDS011;26644;50.248;19.032;2022-07-15T00:01:24;16.40;;;10.13;;
40917;SDS011;26644;50.248;19.032;2022-07-15T00:04:29;14.65;;;11.73;;
40917;SDS011;26644;50.248;19.032;2022-07-15T00:07:32;15.13;;;10.85;;
40917;SDS011;26644;50.248;19.032;2022-07-15T00:10:34;16.30;;;11.15;;
40917;SDS011;26644;50.248;19.032;2022-07-15T00:13:36;15.10;;;11.52;;
40917;SDS011;26644;50.248;19.032;2022-07-15T00:16:38;16.13;;;11.73;;
40917;SDS011;26644;50.248;19.032;2022-07-15T00:19:40;16.15;;;12.43;;
40917;SDS011;26644;50.248;19.032;2022-07-15T00:22:43;16.00;;;12.27;;
40917;SDS011;26644;50.248;19.032;2022-07-15T00:25:46;17.98;;;13.68;;
40917;SDS011;26644;50.248;19.032;2022-07-15T00:28:48;19.15;;;13.55;;
40917;SDS011;26644;50.248;19.032;2022-07-15T00:31:49;18.85;;;14.07;;
40917;SDS011;26644;50.248;19.032;2022-07-15T00:34:51;21.50;;;14.52;;
40917;SDS011;26644;50.248;19.032;2022-07-15T00:37:55;18.88;;;14.95;;
40917;SDS011;26644;50.248;19.032;2022-07-15T00:40:57;16.85;;;14.27;;
40917;SDS011;26644;50.248;19.032;2022-07-15T00:43:59;22.35;;;14.88;;
40917;SDS011;26644;50.248;19.032;2022-07-15T00:47:01;20.33;;;15.82;;
40917;SDS011;26644;50.248;19.032;2022-07-15T00:50:03;18.73;;;14.52;;
40917;SDS011;26644;50.248;19.032;2022-07-15T00:53:10;20.45;;;16.33;;
40917;SDS011;26644;50.248;19.032;2022-07-15T00:56:16;25.27;;;17.05;;
40917;SDS011;26644;50.248;19.032;2022-07-15T00:59:23;22.50;;;17.02;;
40917;SDS011;26644;50.248;19.032;2022-07-15T01:02:31;23.02;;;17.42;;
40917;SDS011;26644;50.248;19.032;2022-07-15T01:05:33;28.80;;;18.45;;
40917;SDS011;26644;50.248;19.032;2022-07-15T01:08:37;25.65;;;19.40;;
40917;SDS011;26644;50.248;19.032;2022-07-15T01:11:39;28.65;;;20.25;;
40917;SDS011;26644;50.248;19.032;2022-07-15T01:14:41;24.17;;;18.17;;
40917;SDS011;26644;50.248;19.032;2022-07-15T01:17:45;24.65;;;16.98;;
40917;SDS011;26644;50.248;19.032;2022-07-15T01:20:50;19.38;;;14.77;;
40917;SDS011;26644;50.248;19.032;2022-07-15T01:23:52;25.00;;;17.80;;
40917;SDS011;26644;50.248;19.032;2022-07-15T01:27:17;23.58;;;16.60;;
40917;SDS011;26644;50.248;19.032;2022-07-15T01:30:20;19.58;;;14.63;;
40917;SDS011;26644;50.248;19.032;2022-07-15T01:33:23;20.23;;;15.70;;
40917;SDS011;26644;50.248;19.032;2022-07-15T01:36:27;21.70;;;16.92;;
40917;SDS011;26644;50.248;19.032;2022-07-15T01:39:32;25.70;;;18.23;;
40917;SDS011;26644;50.248;19.032;2022-07-15T01:42:35;26.02;;;18.95;;
40917;SDS011;26644;50.248;19.032;2022-07-15T01:45:36;29.35;;;20.25;;
40917;SDS011;26644;50.248;19.032;2022-07-15T01:48:39;25.77;;;20.02;;
40917;SDS011;26644;50.248;19.032;2022-07-15T01:52:15;27.80;;;20.52;;
40917;SDS011;26644;50.248;19.032;2022-07-15T01:55:19;29.67;;;21.30;;
40917;SDS011;26644;50.248;19.032;2022-07-15T01:58:21;28.35;;;20.50;;
40917;SDS011;26644;50.248;19.032;2022-07-15T02:01:24;28.98;;;21.95;;
40917;SDS011;26644;50.248;19.032;2022-07-15T02:04:26;30.65;;;23.30;;
40917;SDS011;26644;50.248;19.032;2022-07-15T02:07:30;31.30;;;21.30;;
40917;SDS011;26644;50.248;19.032;2022-07-15T02:10:32;33.17;;;23.17;;
40917;SDS011;26644;50.248;19.032;2022-07-15T02:13:45;33.75;;;23.40;;
40917;SDS011;26644;50.248;19.032;2022-07-15T02:16:48;30.60;;;21.98;;
40917;SDS011;26644;50.248;19.032;2022-07-15T02:19:54;33.15;;;22.10;;
40917;SDS011;26644;50.248;19.032;2022-07-15T02:23:00;32.38;;;22.63;;
40917;SDS011;26644;50.248;19.032;2022-07-15T02:26:03;39.55;;;23.42;;
40917;SDS011;26644;50.248;19.032;2022-07-15T02:29:05;36.15;;;22.70;;
40917;SDS011;26644;50.248;19.032;2022-07-15T02:32:07;36.50;;;24.38;;
40917;SDS011;26644;50.248;19.032;2022-07-15T02:35:10;33.13;;;21.88;;
40917;SDS011;26644;50.248;19.032;2022-07-15T02:38:13;34.60;;;23.08;;
40917;SDS011;26644;50.248;19.032;2022-07-15T02:41:15;32.38;;;22.38;;
40917;SDS011;26644;50.248;19.032;2022-07-15T02:44:19;35.97;;;21.33;;
40917;SDS011;26644;50.248;19.032;2022-07-15T02:47:23;32.63;;;22.90;;
40917;SDS011;26644;50.248;19.032;2022-07-15T02:50:27;36.10;;;23.27;;
40917;SDS011;26644;50.248;19.032;2022-07-15T02:53:31;39.70;;;25.55;;
40917;SDS011;26644;50.248;19.032;2022-07-15T02:56:39;39.72;;;25.20;;
40917;SDS011;26644;50.248;19.032;2022-07-15T02:59:40;39.10;;;25.75;;
40917;SDS011;26644;50.248;19.032;2022-07-15T03:02:43;37.65;;;25.23;;
40917;SDS011;26644;50.248;19.032;2022-07-15T03:05:47;40.47;;;25.20;;
40917;SDS011;26644;50.248;19.032;2022-07-15T03:08:50;31.98;;;22.13;;
40917;SDS011;26644;50.248;19.032;2022-07-15T03:11:54;27.98;;;19.17;;
40917;SDS011;26644;50.248;19.032;2022-07-15T03:14:58;38.20;;;21.33;;
40917;SDS011;26644;50.248;19.032;2022-07-15T03:18:01;34.55;;;19.08;;
40917;SDS011;26644;50.248;19.032;2022-07-15T03:21:03;30.20;;;17.27;;
40917;SDS011;26644;50.248;19.032;2022-07-15T03:24:07;29.80;;;18.50;;
40917;SDS011;26644;50.248;19.032;2022-07-15T03:27:10;28.65;;;18.27;;
40917;SDS011;26644;50.248;19.032;2022-07-15T03:30:12;33.53;;;18.27;;
40917;SDS011;26644;50.248;19.032;2022-07-15T03:33:16;29.73;;;17.95;;
40917;SDS011;26644;50.248;19.032;2022-07-15T03:36:19;27.13;;;16.95;;
40917;SDS011;26644;50.248;19.032;2022-07-15T03:39:23;30.13;;;15.98;;
40917;SDS011;26644;50.248;19.032;2022-07-15T03:42:25;25.85;;;15.70;;
40917;SDS011;26644;50.248;19.032;2022-07-15T03:45:27;21.65;;;14.82;;
40917;SDS011;26644;50.248;19.032;2022-07-15T03:48:29;20.95;;;13.30;;
40917;SDS011;26644;50.248;19.032;2022-07-15T03:51:31;17.95;;;12.18;;
40917;SDS011;26644;50.248;19.032;2022-07-15T03:54:35;24.45;;;15.85;;
40917;SDS011;26644;50.248;19.032;2022-07-15T03:57:37;26.70;;;13.25;;
40917;SDS011;26644;50.248;19.032;2022-07-15T04:00:39;21.98;;;14.93;;
40917;SDS011;26644;50.248;19.032;2022-07-15T04:03:41;24.98;;;15.50;;
40917;SDS011;26644;50.248;19.032;2022-07-15T04:06:43;22.33;;;14.52;;
40917;SDS011;26644;50.248;19.032;2022-07-15T04:09:47;20.92;;;10.27;;
40917;SDS011;26644;50.248;19.032;2022-07-15T04:12:48;15.60;;;9.35;;
40917;SDS011;26644;50.248;19.032;2022-07-15T04:15:50;15.77;;;8.43;;
40917;SDS011;26644;50.248;19.032;2022-07-15T04:18:52;16.02;;;8.75;;
40917;SDS011;26644;50.248;19.032;2022-07-15T04:21:56;14.43;;;7.45;;
40917;SDS011;26644;50.248;19.032;2022-07-15T04:24:59;12.18;;;8.55;;
40917;SDS011;26644;50.248;19.032;2022-07-15T04:28:01;11.73;;;7.15;;
40917;SDS011;26644;50.248;19.032;2022-07-15T04:31:06;17.42;;;7.95;;
40917;SDS011;26644;50.248;19.032;2022-07-15T04:34:20;10.63;;;6.47;;
40917;SDS011;26644;50.248;19.032;2022-07-15T04:37:23;12.95;;;6.15;;
40917;SDS011;26644;50.248;19.032;2022-07-15T04:40:30;14.68;;;6.97;;
40917;SDS011;26644;50.248;19.032;2022-07-15T04:43:35;14.82;;;6.88;;
40917;SDS011;26644;50.248;19.032;2022-07-15T04:46:37;9.30;;;7.03;;
40917;SDS011;26644;50.248;19.032;2022-07-15T04:49:57;9.35;;;6.28;;
40917;SDS011;26644;50.248;19.032;2022-07-15T04:53:19;17.65;;;6.72;;
40917;SDS011;26644;50.248;19.032;2022-07-15T04:56:24;8.15;;;4.88;;
40917;SDS011;26644;50.248;19.032;2022-07-15T04:59:36;8.60;;;4.57;;
40917;SDS011;26644;50.248;19.032;2022-07-15T05:02:40;11.13;;;5.13;;
40917;SDS011;26644;50.248;19.032;2022-07-15T05:05:42;10.60;;;5.28;;
40917;SDS011;26644;50.248;19.032;2022-07-15T05:08:47;10.18;;;5.00;;
40917;SDS011;26644;50.248;19.032;2022-07-15T05:11:52;9.52;;;5.05;;
40917;SDS011;26644;50.248;19.032;2022-07-15T05:14:55;8.00;;;4.00;;
40917;SDS011;26644;50.248;19.032;2022-07-15T05:17:57;9.68;;;4.55;;
40917;SDS011;26644;50.248;19.032;2022-07-15T05:20:59;10.07;;;4.80;;
40917;SDS011;26644;50.248;19.032;2022-07-15T05:24:05;8.93;;;5.13;;
40917;SDS011;26644;50.248;19.032;2022-07-15T05:27:12;11.40;;;5.70;;
40917;SDS011;26644;50.248;19.032;2022-07-15T05:30:14;13.00;;;5.63;;
40917;SDS011;26644;50.248;19.032;2022-07-15T05:33:17;13.10;;;6.50;;
40917;SDS011;26644;50.248;19.032;2022-07-15T05:36:20;9.88;;;5.50;;
40917;SDS011;26644;50.248;19.032;2022-07-15T05:39:23;9.57;;;4.35;;
40917;SDS011;26644;50.248;19.032;2022-07-15T05:42:29;8.05;;;2.63;;
40917;SDS011;26644;50.248;19.032;2022-07-15T05:45:31;6.85;;;2.90;;
40917;SDS011;26644;50.248;19.032;2022-07-15T05:48:37;8.05;;;3.28;;
40917;SDS011;26644;50.248;19.032;2022-07-15T05:51:39;7.57;;;3.20;;
40917;SDS011;26644;50.248;19.032;2022-07-15T05:54:43;6.65;;;2.72;;
40917;SDS011;26644;50.248;19.032;2022-07-15T05:57:46;5.57;;;2.80;;
40917;SDS011;26644;50.248;19.032;2022-07-15T06:00:49;5.50;;;2.70;;
40917;SDS011;26644;50.248;19.032;2022-07-15T06:03:52;11.32;;;3.33;;
40917;SDS011;26644;50.248;19.032;2022-07-15T06:06:55;6.80;;;2.88;;
40917;SDS011;26644;50.248;19.032;2022-07-15T06:09:57;9.77;;;3.40;;
40917;SDS011;26644;50.248;19.032;2022-07-15T06:13:00;6.35;;;2.70;;
40917;SDS011;26644;50.248;19.032;2022-07-15T06:16:02;5.57;;;3.38;;
40917;SDS011;26644;50.248;19.032;2022-07-15T06:19:05;5.57;;;3.22;;
40917;SDS011;26644;50.248;19.032;2022-07-15T06:22:09;6.03;;;2.80;;
40917;SDS011;26644;50.248;19.032;2022-07-15T06:25:11;8.02;;;2.65;;
40917;SDS011;26644;50.248;19.032;2022-07-15T06:28:14;8.10;;;2.88;;
40917;SDS011;26644;50.248;19.032;2022-07-15T06:31:18;8.10;;;2.55;;
40917;SDS011;26644;50.248;19.032;2022-07-15T06:34:20;8.80;;;3.05;;
40917;SDS011;26644;50.248;19.032;2022-07-15T06:37:22;9.27;;;3.10;;
40917;SDS011;26644;50.248;19.032;2022-07-15T06:40:24;7.82;;;2.80;;
40917;SDS011;26644;50.248;19.032;2022-07-15T06:43:27;10.48;;;2.78;;
40917;SDS011;26644;50.248;19.032;2022-07-15T06:46:37;8.77;;;2.90;;
40917;SDS011;26644;50.248;19.032;2022-07-15T06:49:39;6.40;;;2.90;;
40917;SDS011;26644;50.248;19.032;2022-07-15T06:52:41;6.25;;;2.85;;
40917;SDS011;26644;50.248;19.032;2022-07-15T06:55:43;6.88;;;2.42;;
40917;SDS011;26644;50.248;19.032;2022-07-15T06:58:48;9.18;;;2.63;;
40917;SDS011;26644;50.248;19.032;2022-07-15T07:01:50;7.15;;;2.92;;
40917;SDS011;26644;50.248;19.032;2022-07-15T07:04:51;15.25;;;3.53;;
40917;SDS011;26644;50.248;19.032;2022-07-15T07:07:53;12.43;;;3.05;;
40917;SDS011;26644;50.248;19.032;2022-07-15T07:10:55;9.82;;;3.05;;
40917;SDS011;26644;50.248;19.032;2022-07-15T07:13:59;8.88;;;2.85;;
40917;SDS011;26644;50.248;19.032;2022-07-15T07:17:02;3.35;;;2.30;;
40917;SDS011;26644;50.248;19.032;2022-07-15T07:20:04;5.15;;;2.72;;
40917;SDS011;26644;50.248;19.032;2022-07-15T07:23:07;6.57;;;2.70;;
40917;SDS011;26644;50.248;19.032;2022-07-15T07:26:09;6.03;;;2.78;;
40917;SDS011;26644;50.248;19.032;2022-07-15T07:29:12;5.15;;;2.60;;
40917;SDS011;26644;50.248;19.032;2022-07-15T07:32:16;7.57;;;2.22;;
40917;SDS011;26644;50.248;19.032;2022-07-15T07:35:18;3.85;;;2.20;;
40917;SDS011;26644;50.248;19.032;2022-07-15T07:38:20;2.97;;;1.60;;
40917;SDS011;26644;50.248;19.032;2022-07-15T07:41:22;4.68;;;1.83;;
40917;SDS011;26644;50.248;19.032;2022-07-15T07:44:25;5.00;;;1.40;;
40917;SDS011;26644;50.248;19.032;2022-07-15T07:47:27;4.50;;;1.58;;
40917;SDS011;26644;50.248;19.032;2022-07-15T07:50:29;3.88;;;1.65;;
40917;SDS011;26644;50.248;19.032;2022-07-15T07:53:31;4.65;;;1.80;;
40917;SDS011;26644;50.248;19.032;2022-07-15T07:56:33;3.10;;;1.60;;
40917;SDS011;26644;50.248;19.032;2022-07-15T07:59:36;4.38;;;1.70;;
40917;SDS011;26644;50.248;19.032;2022-07-15T08:02:38;5.10;;;1.17;;
40917;SDS011;26644;50.248;19.032;2022-07-15T08:05:41;2.75;;;1.45;;
40917;SDS011;26644;50.248;19.032;2022-07-15T08:08:43;3.47;;;1.10;;
40917;SDS011;26644;50.248;19.032;2022-07-15T08:11:45;4.22;;;1.20;;
40917;SDS011;26644;50.248;19.032;2022-07-15T08:14:48;4.57;;;1.50;;
40917;SDS011;26644;50.248;19.032;2022-07-15T08:17:51;3.22;;;1.13;;
40917;SDS011;26644;50.248;19.032;2022-07-15T08:20:53;3.45;;;1.02;;
40917;SDS011;26644;50.248;19.032;2022-07-15T08:23:55;2.05;;;1.20;;
40917;SDS011;26644;50.248;19.032;2022-07-15T08:26:57;6.13;;;1.85;;
40917;SDS011;26644;50.248;19.032;2022-07-15T08:30:00;1.45;;;0.90;;
40917;SDS011;26644;50.248;19.032;2022-07-15T08:33:03;4.47;;;1.27;;
40917;SDS011;26644;50.248;19.032;2022-07-15T08:36:05;7.53;;;1.17;;
40917;SDS011;26644;50.248;19.032;2022-07-15T08:39:07;3.05;;;1.30;;
40917;SDS011;26644;50.248;19.032;2022-07-15T08:42:09;5.22;;;1.17;;
40917;SDS011;26644;50.248;19.032;2022-07-15T08:45:13;5.25;;;1.52;;
40917;SDS011;26644;50.248;19.032;2022-07-15T08:48:16;3.35;;;1.73;;
40917;SDS011;26644;50.248;19.032;2022-07-15T08:51:19;5.35;;;1.45;;
40917;SDS011;26644;50.248;19.032;2022-07-15T08:54:24;3.10;;;1.17;;
40917;SDS011;26644;50.248;19.032;2022-07-15T08:57:26;7.05;;;1.42;;
40917;SDS011;26644;50.248;19.032;2022-07-15T09:00:29;4.20;;;1.48;;
40917;SDS011;26644;50.248;19.032;2022-07-15T09:03:31;5.60;;;1.33;;
40917;SDS011;26644;50.248;19.032;2022-07-15T09:06:34;4.63;;;1.60;;
40917;SDS011;26644;50.248;19.032;2022-07-15T09:09:37;3.78;;;1.90;;
40917;SDS011;26644;50.248;19.032;2022-07-15T09:12:39;2.17;;;1.00;;
40917;SDS011;26644;50.248;19.032;2022-07-15T09:15:43;4.72;;;1.00;;
40917;SDS011;26644;50.248;19.032;2022-07-15T09:18:45;2.70;;;1.20;;
40917;SDS011;26644;50.248;19.032;2022-07-15T09:21:56;4.60;;;1.20;;
40917;SDS011;26644;50.248;19.032;2022-07-15T09:25:04;1.70;;;0.73;;
40917;SDS011;26644;50.248;19.032;2022-07-15T09:28:08;3.13;;;0.90;;
40917;SDS011;26644;50.248;19.032;2022-07-15T09:31:11;2.90;;;1.02;;
40917;SDS011;26644;50.248;19.032;2022-07-15T09:34:31;2.25;;;0.77;;
40917;SDS011;26644;50.248;19.032;2022-07-15T09:37:32;3.10;;;0.75;;
40917;SDS011;26644;50.248;19.032;2022-07-15T09:40:35;2.78;;;0.70;;
40917;SDS011;26644;50.248;19.032;2022-07-15T09:43:50;1.50;;;0.95;;
40917;SDS011;26644;50.248;19.032;2022-07-15T09:46:56;5.18;;;1.05;;
40917;SDS011;26644;50.248;19.032;2022-07-15T09:49:59;3.45;;;0.85;;
40917;SDS011;26644;50.248;19.032;2022-07-15T09:53:02;3.92;;;0.85;;
40917;SDS011;26644;50.248;19.032;2022-07-15T09:56:08;3.15;;;1.00;;
40917;SDS011;26644;50.248;19.032;2022-07-15T09:59:13;2.30;;;0.98;;
40917;SDS011;26644;50.248;19.032;2022-07-15T10:02:17;1.35;;;0.70;;
40917;SDS011;26644;50.248;19.032;2022-07-15T10:05:19;2.20;;;0.82;;
40917;SDS011;26644;50.248;19.032;2022-07-15T10:08:21;4.43;;;0.80;;
40917;SDS011;26644;50.248;19.032;2022-07-15T10:11:23;1.95;;;0.98;;
40917;SDS011;26644;50.248;19.032;2022-07-15T10:14:36;2.90;;;1.20;;
40917;SDS011;26644;50.248;19.032;2022-07-15T10:18:08;4.45;;;0.95;;
40917;SDS011;26644;50.248;19.032;2022-07-15T10:21:22;6.07;;;0.93;;
40917;SDS011;26644;50.248;19.032;2022-07-15T10:24:40;7.35;;;1.13;;
40917;SDS011;26644;50.248;19.032;2022-07-15T10:27:56;2.40;;;1.08;;
40917;SDS011;26644;50.248;19.032;2022-07-15T10:31:14;3.88;;;0.90;;
40917;SDS011;26644;50.248;19.032;2022-07-15T10:34:20;1.35;;;0.70;;
40917;SDS011;26644;50.248;19.032;2022-07-15T10:37:23;2.63;;;0.63;;
40917;SDS011;26644;50.248;19.032;2022-07-15T10:44:08;7.95;;;1.10;;
40917;SDS011;26644;50.248;19.032;2022-07-15T10:47:18;1.15;;;0.60;;
40917;SDS011;26644;50.248;19.032;2022-07-15T10:50:38;1.65;;;0.80;;
40917;SDS011;26644;50.248;19.032;2022-07-15T10:53:42;2.38;;;0.90;;
40917;SDS011;26644;50.248;19.032;2022-07-15T10:56:45;2.92;;;0.68;;
40917;SDS011;26644;50.248;19.032;2022-07-15T10:59:50;3.47;;;0.93;;
40917;SDS011;26644;50.248;19.032;2022-07-15T11:03:03;2.53;;;0.80;;
40917;SDS011;26644;50.248;19.032;2022-07-15T11:06:08;4.40;;;1.10;;
40917;SDS011;26644;50.248;19.032;2022-07-15T11:09:10;3.03;;;1.15;;
40917;SDS011;26644;50.248;19.032;2022-07-15T11:12:12;4.28;;;0.90;;
40917;SDS011;26644;50.248;19.032;2022-07-15T11:15:15;3.33;;;1.00;;
40917;SDS011;26644;50.248;19.032;2022-07-15T11:18:18;3.50;;;1.13;;
40917;SDS011;26644;50.248;19.032;2022-07-15T11:21:22;4.18;;;1.40;;
40917;SDS011;26644;50.248;19.032;2022-07-15T11:24:24;4.20;;;0.90;;
40917;SDS011;26644;50.248;19.032;2022-07-15T11:27:26;1.70;;;0.95;;
40917;SDS011;26644;50.248;19.032;2022-07-15T11:30:29;2.67;;;1.15;;
40917;SDS011;26644;50.248;19.032;2022-07-15T11:33:32;4.60;;;1.00;;
40917;SDS011;26644;50.248;19.032;2022-07-15T11:36:36;3.80;;;1.10;;
40917;SDS011;26644;50.248;19.032;2022-07-15T11:39:38;2.72;;;1.50;;
40917;SDS011;26644;50.248;19.032;2022-07-15T11:42:40;4.68;;;1.30;;
40917;SDS011;26644;50.248;19.032;2022-07-15T11:46:00;2.30;;;1.27;;
40917;SDS011;26644;50.248;19.032;2022-07-15T11:49:02;3.50;;;1.10;;
40917;SDS011;26644;50.248;19.032;2022-07-15T11:52:06;6.10;;;2.95;;
40917;SDS011;26644;50.248;19.032;2022-07-15T11:55:10;1.77;;;1.20;;
40917;SDS011;26644;50.248;19.032;2022-07-15T11:58:12;2.35;;;1.50;;
40917;SDS011;26644;50.248;19.032;2022-07-15T12:01:14;4.13;;;1.45;;
40917;SDS011;26644;50.248;19.032;2022-07-15T12:04:19;5.30;;;1.85;;
40917;SDS011;26644;50.248;19.032;2022-07-15T12:07:39;3.53;;;1.20;;
40917;SDS011;26644;50.248;19.032;2022-07-15T12:10:41;2.30;;;1.25;;
40917;SDS011;26644;50.248;19.032;2022-07-15T12:13:44;2.63;;;0.95;;
40917;SDS011;26644;50.248;19.032;2022-07-15T12:16:48;2.80;;;1.15;;
40917;SDS011;26644;50.248;19.032;2022-07-15T12:19:52;3.55;;;1.20;;
40917;SDS011;26644;50.248;19.032;2022-07-15T12:23:02;2.65;;;1.13;;
40917;SDS011;26644;50.248;19.032;2022-07-15T12:26:06;2.35;;;1.00;;
40917;SDS011;26644;50.248;19.032;2022-07-15T12:29:10;5.10;;;1.20;;
40917;SDS011;26644;50.248;19.032;2022-07-15T12:32:13;3.35;;;1.10;;
40917;SDS011;26644;50.248;19.032;2022-07-15T12:35:16;4.60;;;1.58;;
40917;SDS011;26644;50.248;19.032;2022-07-15T12:38:29;4.80;;;1.20;;
40917;SDS011;26644;50.248;19.032;2022-07-15T12:41:32;1.20;;;1.10;;
40917;SDS011;26644;50.248;19.032;2022-07-15T12:44:35;1.63;;;0.90;;
40917;SDS011;26644;50.248;19.032;2022-07-15T12:50:58;2.05;;;1.15;;
40917;SDS011;26644;50.248;19.032;2022-07-15T12:54:04;3.60;;;0.98;;
40917;SDS011;26644;50.248;19.032;2022-07-15T12:57:06;5.50;;;1.17;;
40917;SDS011;26644;50.248;19.032;2022-07-15T13:00:20;3.63;;;1.30;;
40917;SDS011;26644;50.248;19.032;2022-07-15T13:03:23;3.78;;;1.38;;
40917;SDS011;26644;50.248;19.032;2022-07-15T13:06:25;3.03;;;1.20;;
40917;SDS011;26644;50.248;19.032;2022-07-15T13:09:28;5.03;;;1.10;;
40917;SDS011;26644;50.248;19.032;2022-07-15T13:12:30;1.75;;;0.90;;
40917;SDS011;26644;50.248;19.032;2022-07-15T13:15:32;1.85;;;0.85;;
40917;SDS011;26644;50.248;19.032;2022-07-15T13:18:35;3.33;;;1.15;;
40917;SDS011;26644;50.248;19.032;2022-07-15T13:21:37;2.25;;;1.10;;
40917;SDS011;26644;50.248;19.032;2022-07-15T13:24:41;2.75;;;1.38;;
40917;SDS011;26644;50.248;19.032;2022-07-15T13:27:43;5.55;;;1.80;;
40917;SDS011;26644;50.248;19.032;2022-07-15T13:30:45;4.85;;;1.23;;
40917;SDS011;26644;50.248;19.032;2022-07-15T13:33:47;4.43;;;1.90;;
40917;SDS011;26644;50.248;19.032;2022-07-15T13:36:49;3.97;;;1.60;;
40917;SDS011;26644;50.248;19.032;2022-07-15T13:39:52;2.78;;;1.20;;
40917;SDS011;26644;50.248;19.032;2022-07-15T13:42:54;2.25;;;1.00;;
40917;SDS011;26644;50.248;19.032;2022-07-15T13:45:56;2.42;;;0.90;;
40917;SDS011;26644;50.248;19.032;2022-07-15T13:48:58;2.03;;;0.90;;
40917;SDS011;26644;50.248;19.032;2022-07-15T13:52:00;2.70;;;1.00;;
40917;SDS011;26644;50.248;19.032;2022-07-15T13:58:03;3.15;;;1.20;;
40917;SDS011;26644;50.248;19.032;2022-07-15T14:01:05;2.45;;;1.00;;
40917;SDS011;26644;50.248;19.032;2022-07-15T14:04:07;6.22;;;1.48;;
40917;SDS011;26644;50.248;19.032;2022-07-15T14:07:09;3.22;;;1.38;;
40917;SDS011;26644;50.248;19.032;2022-07-15T14:10:12;7.55;;;1.50;;
40917;SDS011;26644;50.248;19.032;2022-07-15T14:13:15;3.63;;;1.00;;
40917;SDS011;26644;50.248;19.032;2022-07-15T14:16:17;2.17;;;1.25;;
40917;SDS011;26644;50.248;19.032;2022-07-15T14:19:18;4.30;;;1.33;;
40917;SDS011;26644;50.248;19.032;2022-07-15T14:22:21;1.83;;;0.90;;
40917;SDS011;26644;50.248;19.032;2022-07-15T14:25:24;2.63;;;1.10;;
40917;SDS011;26644;50.248;19.032;2022-07-15T14:28:26;2.72;;;1.45;;
40917;SDS011;26644;50.248;19.032;2022-07-15T14:31:28;2.38;;;1.02;;
40917;SDS011;26644;50.248;19.032;2022-07-15T14:34:30;3.85;;;1.20;;
40917;SDS011;26644;50.248;19.032;2022-07-15T14:37:31;9.38;;;1.60;;
40917;SDS011;26644;50.248;19.032;2022-07-15T14:40:35;5.82;;;2.17;;
40917;SDS011;26644;50.248;19.032;2022-07-15T14:43:37;3.85;;;1.40;;
40917;SDS011;26644;50.248;19.032;2022-07-15T14:46:38;3.33;;;1.15;;
40917;SDS011;26644;50.248;19.032;2022-07-15T14:49:40;1.17;;;0.80;;
40917;SDS011;26644;50.248;19.032;2022-07-15T14:52:42;3.28;;;1.10;;
40917;SDS011;26644;50.248;19.032;2022-07-15T14:55:45;5.28;;;1.08;;
40917;SDS011;26644;50.248;19.032;2022-07-15T14:58:47;5.68;;;1.27;;
40917;SDS011;26644;50.248;19.032;2022-07-15T15:01:49;6.70;;;1.48;;
40917;SDS011;26644;50.248;19.032;2022-07-15T15:04:51;2.53;;;1.40;;
40917;SDS011;26644;50.248;19.032;2022-07-15T15:07:53;3.22;;;1.25;;
40917;SDS011;26644;50.248;19.032;2022-07-15T15:10:57;3.28;;;1.27;;
40917;SDS011;26644;50.248;19.032;2022-07-15T15:13:59;4.00;;;1.00;;
40917;SDS011;26644;50.248;19.032;2022-07-15T15:17:02;4.55;;;1.08;;
40917;SDS011;26644;50.248;19.032;2022-07-15T15:20:04;2.65;;;1.40;;
40917;SDS011;26644;50.248;19.032;2022-07-15T15:23:07;3.72;;;1.30;;
40917;SDS011;26644;50.248;19.032;2022-07-15T15:26:11;4.70;;;0.93;;
40917;SDS011;26644;50.248;19.032;2022-07-15T15:29:25;4.32;;;1.10;;
40917;SDS011;26644;50.248;19.032;2022-07-15T15:32:28;3.80;;;1.30;;
40917;SDS011;26644;50.248;19.032;2022-07-15T15:35:30;3.92;;;1.10;;
40917;SDS011;26644;50.248;19.032;2022-07-15T15:38:32;2.40;;;0.82;;
40917;SDS011;26644;50.248;19.032;2022-07-15T15:41:36;3.40;;;1.10;;
40917;SDS011;26644;50.248;19.032;2022-07-15T15:44:38;2.28;;;0.93;;
40917;SDS011;26644;50.248;19.032;2022-07-15T15:47:40;3.80;;;1.00;;
40917;SDS011;26644;50.248;19.032;2022-07-15T15:50:42;2.65;;;1.13;;
40917;SDS011;26644;50.248;19.032;2022-07-15T15:53:44;2.45;;;1.17;;
40917;SDS011;26644;50.248;19.032;2022-07-15T15:56:47;4.82;;;1.52;;
40917;SDS011;26644;50.248;19.032;2022-07-15T15:59:49;4.10;;;1.20;;
40917;SDS011;26644;50.248;19.032;2022-07-15T16:02:51;2.88;;;1.10;;
40917;SDS011;26644;50.248;19.032;2022-07-15T16:05:53;5.15;;;1.70;;
40917;SDS011;26644;50.248;19.032;2022-07-15T16:08:54;7.35;;;1.60;;
40917;SDS011;26644;50.248;19.032;2022-07-15T16:11:58;7.00;;;1.42;;
40917;SDS011;26644;50.248;19.032;2022-07-15T16:15:00;3.15;;;1.20;;
40917;SDS011;26644;50.248;19.032;2022-07-15T16:18:02;5.97;;;1.40;;
40917;SDS011;26644;50.248;19.032;2022-07-15T16:21:04;2.38;;;1.00;;
40917;SDS011;26644;50.248;19.032;2022-07-15T16:24:06;6.30;;;1.10;;
40917;SDS011;26644;50.248;19.032;2022-07-15T16:30:11;6.47;;;1.65;;
40917;SDS011;26644;50.248;19.032;2022-07-15T16:33:12;2.35;;;0.95;;
40917;SDS011;26644;50.248;19.032;2022-07-15T16:36:14;4.35;;;1.63;;
40917;SDS011;26644;50.248;19.032;2022-07-15T16:39:16;4.10;;;1.58;;
40917;SDS011;26644;50.248;19.032;2022-07-15T16:42:20;3.95;;;1.42;;
40917;SDS011;26644;50.248;19.032;2022-07-15T16:45:21;5.47;;;1.50;;
40917;SDS011;26644;50.248;19.032;2022-07-15T16:48:23;6.32;;;1.23;;
40917;SDS011;26644;50.248;19.032;2022-07-15T16:51:25;4.47;;;1.38;;
40917;SDS011;26644;50.248;19.032;2022-07-15T16:54:27;4.55;;;1.45;;
40917;SDS011;26644;50.248;19.032;2022-07-15T16:57:30;2.50;;;1.17;;
40917;SDS011;26644;50.248;19.032;2022-07-15T17:00:32;3.00;;;1.85;;
40917;SDS011;26644;50.248;19.032;2022-07-15T17:03:34;6.38;;;1.80;;
40917;SDS011;26644;50.248;19.032;2022-07-15T17:06:36;7.55;;;1.60;;
40917;SDS011;26644;50.248;19.032;2022-07-15T17:09:38;4.25;;;1.85;;
40917;SDS011;26644;50.248;19.032;2022-07-15T17:12:41;4.18;;;1.38;;
40917;SDS011;26644;50.248;19.032;2022-07-15T17:15:43;6.32;;;1.42;;
40917;SDS011;26644;50.248;19.032;2022-07-15T17:18:45;6.05;;;2.40;;
40917;SDS011;26644;50.248;19.032;2022-07-15T17:21:47;9.52;;;2.28;;
40917;SDS011;26644;50.248;19.032;2022-07-15T17:24:49;6.97;;;2.03;;
40917;SDS011;26644;50.248;19.032;2022-07-15T17:27:52;2.65;;;1.40;;
40917;SDS011;26644;50.248;19.032;2022-07-15T17:30:54;3.40;;;1.13;;
40917;SDS011;26644;50.248;19.032;2022-07-15T17:33:56;3.92;;;1.15;;
40917;SDS011;26644;50.248;19.032;2022-07-15T17:36:58;3.15;;;1.55;;
40917;SDS011;26644;50.248;19.032;2022-07-15T17:40:00;4.90;;;0.95;;
40917;SDS011;26644;50.248;19.032;2022-07-15T17:43:06;4.07;;;1.27;;
40917;SDS011;26644;50.248;19.032;2022-07-15T17:46:08;3.22;;;1.15;;
40917;SDS011;26644;50.248;19.032;2022-07-15T17:49:10;2.67;;;1.15;;
40917;SDS011;26644;50.248;19.032;2022-07-15T17:52:12;5.32;;;1.50;;
40917;SDS011;26644;50.248;19.032;2022-07-15T17:55:14;5.03;;;1.65;;
40917;SDS011;26644;50.248;19.032;2022-07-15T17:58:17;4.95;;;1.45;;
40917;SDS011;26644;50.248;19.032;2022-07-15T18:01:19;2.30;;;1.20;;
40917;SDS011;26644;50.248;19.032;2022-07-15T18:04:22;7.68;;;1.58;;
40917;SDS011;26644;50.248;19.032;2022-07-15T18:07:24;3.85;;;1.30;;
40917;SDS011;26644;50.248;19.032;2022-07-15T18:10:25;3.08;;;1.52;;
40917;SDS011;26644;50.248;19.032;2022-07-15T18:13:29;5.72;;;2.10;;
40917;SDS011;26644;50.248;19.032;2022-07-15T18:16:32;2.25;;;1.17;;